createdAt,value
2022-11-12T00:01:59.689Z,28.80
2022-11-12T00:04:44.815Z,28.08
2022-11-12T00:07:29.790Z,33.95
2022-11-12T00:10:15.301Z,41.70
2022-11-12T00:13:00.592Z,37.72
2022-11-12T00:15:46.951Z,37.28
2022-11-12T00:18:31.765Z,29.67
2022-11-12T00:21:16.776Z,30.27
2022-11-12T00:24:02.657Z,30.15
2022-11-12T00:26:47.915Z,30.42
2022-11-12T00:29:32.724Z,36.95
2022-11-12T00:32:18.029Z,31.40
2022-11-12T00:35:05.475Z,31.80
2022-11-12T00:37:56.653Z,28.92
2022-11-12T00:40:42.194Z,28.15
2022-11-12T00:43:27.882Z,29.17
2022-11-12T00:46:12.883Z,28.80
2022-11-12T00:48:57.674Z,29.25
2022-11-12T00:51:43.292Z,35.28
2022-11-12T00:54:28.065Z,27.67
2022-11-12T00:57:12.991Z,29.98
2022-11-12T00:59:58.227Z,29.60
2022-11-12T01:02:49.362Z,32.40
2022-11-12T01:05:36.036Z,31.65
2022-11-12T01:08:20.883Z,28.13
2022-11-12T01:11:14.880Z,27.20
2022-11-12T01:14:03.006Z,30.17
2022-11-12T01:16:48.187Z,26.88
2022-11-12T01:19:33.356Z,29.58
2022-11-12T01:22:18.305Z,26.58
2022-11-12T01:25:03.618Z,28.77
2022-11-12T01:27:48.737Z,27.42
2022-11-12T01:30:33.666Z,27.67
2022-11-12T01:33:18.500Z,35.22
2022-11-12T01:36:03.718Z,158.77
2022-11-12T01:38:49.822Z,56.67
2022-11-12T01:41:37.200Z,38.97
2022-11-12T01:44:26.810Z,30.02
2022-11-12T01:47:11.956Z,30.73
2022-11-12T01:50:14.564Z,42.20
2022-11-12T01:53:05.483Z,27.50
2022-11-12T01:55:51.283Z,30.20
2022-11-12T01:58:38.487Z,30.90
2022-11-12T02:01:23.269Z,50.33
2022-11-12T02:04:08.766Z,38.65
2022-11-12T02:06:56.413Z,108.85
2022-11-12T02:09:41.531Z,25.98
2022-11-12T02:12:45.454Z,28.73
2022-11-12T02:15:30.816Z,36.40
2022-11-12T02:18:16.062Z,32.47
2022-11-12T02:21:05.793Z,32.47
2022-11-12T02:24:04.855Z,37.03
2022-11-12T02:26:54.570Z,37.00
2022-11-12T02:29:46.500Z,36.25
2022-11-12T02:32:33.860Z,31.10
2022-11-12T02:35:19.017Z,30.75
2022-11-12T02:38:05.040Z,30.90
2022-11-12T02:40:51.902Z,29.52
2022-11-12T02:43:37.023Z,27.85
2022-11-12T02:46:22.687Z,29.20
2022-11-12T02:49:07.724Z,26.83
2022-11-12T02:51:52.605Z,29.98
2022-11-12T02:54:37.659Z,37.72
2022-11-12T02:57:22.682Z,28.17
2022-11-12T03:00:11.935Z,31.67
2022-11-12T03:02:59.857Z,28.08
2022-11-12T03:05:45.870Z,31.30
2022-11-12T03:08:31.139Z,28.40
2022-11-12T03:11:17.529Z,24.40
2022-11-12T03:14:03.565Z,25.15
2022-11-12T03:16:48.501Z,25.77
2022-11-12T03:19:33.328Z,28.48
2022-11-12T03:22:18.533Z,32.88
2022-11-12T03:25:04.205Z,27.58
2022-11-12T03:27:49.437Z,32.17
2022-11-12T03:30:36.552Z,30.52
2022-11-12T03:33:21.609Z,29.73
2022-11-12T03:36:06.995Z,26.85
2022-11-12T03:38:52.211Z,31.08
2022-11-12T03:41:37.139Z,23.80
2022-11-12T03:44:22.315Z,28.90
2022-11-12T03:47:07.144Z,26.67
2022-11-12T03:49:52.110Z,26.23
2022-11-12T03:52:37.911Z,18.55
2022-11-12T03:55:25.804Z,26.02
2022-11-12T03:58:10.849Z,21.25
2022-11-12T04:00:55.868Z,19.65
2022-11-12T04:03:41.062Z,18.42
2022-11-12T04:06:44.684Z,15.55
2022-11-12T04:09:29.696Z,13.93
2022-11-12T04:12:33.197Z,12.65
2022-11-12T04:15:18.269Z,14.95
2022-11-12T04:18:21.941Z,16.67
2022-11-12T04:21:27.287Z,14.95
2022-11-12T04:24:32.670Z,15.25
2022-11-12T04:27:23.480Z,19.08
2022-11-12T04:30:18.752Z,27.52
2022-11-12T04:33:03.763Z,14.70
2022-11-12T04:35:48.854Z,12.88
2022-11-12T04:38:33.745Z,14.00
2022-11-12T04:41:37.445Z,18.00
2022-11-12T04:44:41.512Z,19.63
2022-11-12T04:47:38.538Z,32.42
2022-11-12T04:50:23.598Z,19.40
2022-11-12T04:53:08.658Z,19.33
2022-11-12T04:55:55.817Z,17.10
2022-11-12T04:58:40.658Z,19.85
2022-11-12T05:01:25.704Z,22.17
2022-11-12T05:04:11.707Z,21.23
2022-11-12T05:06:57.309Z,22.42
2022-11-12T05:09:42.985Z,17.75
2022-11-12T05:12:28.118Z,19.13
2022-11-12T05:15:13.365Z,20.70
2022-11-12T05:17:58.679Z,22.17
2022-11-12T05:20:43.794Z,26.88
2022-11-12T05:23:28.698Z,15.00
2022-11-12T05:26:14.042Z,14.18
2022-11-12T05:28:59.189Z,36.17
2022-11-12T05:31:45.064Z,14.10
2022-11-12T05:34:30.024Z,14.88
2022-11-12T05:37:15.989Z,16.50
2022-11-12T05:40:01.039Z,20.83
2022-11-12T05:42:45.926Z,17.95
2022-11-12T05:45:30.729Z,15.02
2022-11-12T05:48:18.960Z,16.60
2022-11-12T05:51:15.223Z,14.50
2022-11-12T05:54:01.437Z,14.13
2022-11-12T05:56:46.867Z,16.35
2022-11-12T05:59:31.798Z,13.88
2022-11-12T06:02:16.644Z,12.73
2022-11-12T06:05:01.675Z,12.90
2022-11-12T06:07:46.454Z,12.38
2022-11-12T06:10:33.400Z,14.75
2022-11-12T06:13:19.732Z,12.30
2022-11-12T06:16:04.880Z,13.30
2022-11-12T06:18:50.212Z,15.75
2022-11-12T06:21:35.088Z,15.05
2022-11-12T06:24:20.672Z,17.40
2022-11-12T06:27:05.738Z,12.75
2022-11-12T06:29:50.862Z,13.05
2022-11-12T06:32:36.248Z,15.60
2022-11-12T06:35:21.317Z,13.23
2022-11-12T06:38:06.386Z,34.58
2022-11-12T06:40:51.605Z,21.80
2022-11-12T06:43:37.218Z,44.83
2022-11-12T06:46:22.226Z,26.17
2022-11-12T06:49:07.064Z,48.78
2022-11-12T06:51:52.031Z,53.38
2022-11-12T06:54:36.869Z,35.40
2022-11-12T06:57:21.857Z,93.57
2022-11-12T07:00:08.498Z,12.88
2022-11-12T07:02:53.517Z,34.45
2022-11-12T07:05:39.110Z,21.52
2022-11-12T07:08:24.115Z,18.15
2022-11-12T07:11:09.949Z,16.08
2022-11-12T07:13:54.825Z,14.32
2022-11-12T07:16:40.060Z,39.75
2022-11-12T07:19:25.258Z,16.42
2022-11-12T07:22:10.355Z,14.98
2022-11-12T07:24:55.662Z,39.92
2022-11-12T07:27:40.816Z,14.00
2022-11-12T07:30:25.830Z,24.95
2022-11-12T07:33:10.811Z,31.05
2022-11-12T07:36:01.292Z,16.98
2022-11-12T07:38:47.389Z,36.88
2022-11-12T07:41:32.333Z,23.92
2022-11-12T07:44:17.146Z,12.63
2022-11-12T07:47:02.431Z,11.38
2022-11-12T07:49:47.391Z,14.45
2022-11-12T07:52:33.326Z,14.95
2022-11-12T07:55:18.307Z,36.85
2022-11-12T07:58:03.186Z,13.57
2022-11-12T08:00:48.307Z,35.55
2022-11-12T08:03:33.209Z,29.48
2022-11-12T08:06:18.077Z,37.47
2022-11-12T08:09:05.747Z,122.95
2022-11-12T08:11:50.970Z,34.65
2022-11-12T08:14:35.699Z,31.35
2022-11-12T08:17:20.627Z,24.13
2022-11-12T08:20:07.313Z,14.23
2022-11-12T08:22:52.103Z,20.05
2022-11-12T08:25:37.117Z,60.25
2022-11-12T08:28:22.002Z,26.08
2022-11-12T08:31:16.271Z,16.13
2022-11-12T08:34:11.966Z,17.90
2022-11-12T08:36:56.956Z,47.35
2022-11-12T08:39:41.998Z,24.48
2022-11-12T08:42:27.514Z,24.88
2022-11-12T08:45:12.598Z,21.50
2022-11-12T08:48:03.098Z,20.30
2022-11-12T08:50:48.422Z,17.85
2022-11-12T08:53:33.399Z,21.35
2022-11-12T08:56:18.714Z,22.67
2022-11-12T08:59:07.244Z,27.75
2022-11-12T09:01:52.645Z,29.67
2022-11-12T09:04:38.018Z,14.63
2022-11-12T09:07:48.072Z,25.40
2022-11-12T09:10:29.382Z,27.77
2022-11-12T09:13:14.982Z,21.08
2022-11-12T09:16:02.476Z,49.20
2022-11-12T09:18:48.061Z,22.75
2022-11-12T09:21:33.262Z,35.72
2022-11-12T09:24:18.132Z,34.55
2022-11-12T09:27:03.107Z,39.72
2022-11-12T09:29:47.886Z,32.55
2022-11-12T09:32:33.011Z,23.90
2022-11-12T09:35:18.003Z,31.55
2022-11-12T09:38:03.002Z,55.45
2022-11-12T09:40:50.930Z,29.10
2022-11-12T09:43:47.884Z,31.65
2022-11-12T09:46:44.616Z,39.43
2022-11-12T09:49:38.580Z,39.65
2022-11-12T09:52:28.837Z,36.40
2022-11-12T09:55:33.264Z,47.92
2022-11-12T09:58:19.942Z,22.27
2022-11-12T10:01:25.765Z,25.50
2022-11-12T10:04:28.424Z,34.03
2022-11-12T10:07:29.177Z,20.92
2022-11-12T10:10:29.451Z,23.65
2022-11-12T10:13:42.544Z,28.73
2022-11-12T10:16:52.671Z,23.90
2022-11-12T10:19:53.467Z,24.73
2022-11-12T10:22:50.995Z,23.35
2022-11-12T10:25:37.442Z,19.77
2022-11-12T10:28:39.959Z,33.78
2022-11-12T10:31:25.032Z,22.88
2022-11-12T10:34:17.634Z,21.02
2022-11-12T10:37:28.689Z,19.13
2022-11-12T10:40:41.005Z,24.45
2022-11-12T10:43:26.225Z,17.70
2022-11-12T10:46:23.055Z,21.55
2022-11-12T10:49:24.144Z,38.03
2022-11-12T10:52:22.768Z,21.10
2022-11-12T10:55:18.622Z,25.55
2022-11-12T10:58:04.521Z,32.45
2022-11-12T11:01:04.536Z,20.55
2022-11-12T11:03:57.631Z,21.33
2022-11-12T11:06:43.107Z,22.55
2022-11-12T11:09:28.495Z,24.15
2022-11-12T11:12:28.486Z,26.80
2022-11-12T11:33:26.213Z,25.55
2022-11-12T11:36:24.766Z,29.25
2022-11-12T11:39:24.291Z,36.85
2022-11-12T11:42:18.082Z,32.05
2022-11-12T11:45:15.948Z,37.30
2022-11-12T11:48:29.242Z,34.03
2022-11-12T11:51:52.052Z,28.45
2022-11-12T11:54:58.287Z,42.53
2022-11-12T11:58:00.785Z,27.90
2022-11-12T12:00:56.136Z,30.98
2022-11-12T12:04:07.194Z,32.10
2022-11-12T12:07:14.149Z,35.45
2022-11-12T12:10:11.432Z,30.52
2022-11-12T12:13:12.826Z,39.42
2022-11-12T12:16:04.098Z,30.73
2022-11-12T12:19:11.669Z,30.80
2022-11-12T12:21:59.723Z,33.17
2022-11-12T12:24:51.498Z,35.65
2022-11-12T12:27:51.892Z,41.47
2022-11-12T12:30:42.535Z,34.22
2022-11-12T12:33:40.200Z,29.70
2022-11-12T12:36:31.779Z,31.27
2022-11-12T12:39:19.681Z,30.38
2022-11-12T12:42:26.126Z,31.27
2022-11-12T12:45:43.412Z,28.70
2022-11-12T12:48:34.502Z,30.77
2022-11-12T12:51:20.842Z,34.95
2022-11-12T12:54:34.932Z,37.70
2022-11-12T12:57:32.274Z,39.33
2022-11-12T13:00:34.719Z,39.70
2022-11-12T13:03:48.738Z,44.05
2022-11-12T13:06:36.901Z,45.03
2022-11-12T13:09:25.743Z,42.17
2022-11-12T13:12:10.622Z,46.10
2022-11-12T13:15:11.199Z,50.80
2022-11-12T13:17:56.378Z,46.78
2022-11-12T13:20:42.887Z,52.95
2022-11-12T13:24:07.290Z,56.47
2022-11-12T13:27:00.834Z,56.35
2022-11-12T13:29:47.599Z,52.70
2022-11-12T13:32:56.602Z,49.75
2022-11-12T13:35:41.486Z,48.22
2022-11-12T13:38:26.963Z,60.22
2022-11-12T13:41:19.433Z,54.65
2022-11-12T13:44:07.543Z,52.88
2022-11-12T13:49:38.750Z,55.88
2022-11-12T13:52:24.959Z,57.88
2022-11-12T13:55:21.341Z,62.25
2022-11-12T13:58:19.247Z,54.90
2022-11-12T14:01:06.718Z,57.33
2022-11-12T14:03:53.329Z,56.78
2022-11-12T14:06:43.207Z,59.88
2022-11-12T14:09:34.562Z,55.45
2022-11-12T14:12:51.871Z,61.75
2022-11-12T14:16:01.322Z,67.53
2022-11-12T14:19:17.350Z,75.22
2022-11-12T14:22:17.335Z,77.93
2022-11-12T14:25:03.833Z,74.63
2022-11-12T14:27:51.083Z,73.57
2022-11-12T14:30:44.674Z,101.32
2022-11-12T14:33:31.730Z,82.18
2022-11-12T14:36:19.057Z,74.75
2022-11-12T14:41:50.987Z,81.72
2022-11-12T14:44:38.086Z,80.40
2022-11-12T14:47:24.185Z,85.57
2022-11-12T14:50:25.250Z,78.38
2022-11-12T14:53:35.473Z,81.10
2022-11-12T14:56:35.318Z,89.18
2022-11-12T14:59:21.259Z,83.15
2022-11-12T15:02:46.065Z,82.00
2022-11-12T15:06:00.451Z,87.75
2022-11-12T15:08:56.521Z,89.47
2022-11-12T15:11:47.281Z,86.60
2022-11-12T15:14:33.832Z,86.25
2022-11-12T15:17:34.581Z,106.35
2022-11-12T15:20:20.391Z,101.15
2022-11-12T15:23:06.090Z,108.65
2022-11-12T15:25:59.114Z,94.30
2022-11-12T15:28:58.775Z,92.00
2022-11-12T15:31:58.841Z,99.85
2022-11-12T15:34:47.958Z,94.85
2022-11-12T15:37:40.593Z,101.22
2022-11-12T15:40:25.584Z,96.97
2022-11-12T15:43:14.611Z,101.95
2022-11-12T15:45:59.807Z,106.05
2022-11-12T15:48:44.980Z,101.78
2022-11-12T15:51:30.244Z,104.18
2022-11-12T15:54:15.466Z,110.63
2022-11-12T15:57:00.617Z,122.57
2022-11-12T15:59:57.151Z,111.38
2022-11-12T16:02:43.623Z,122.50
2022-11-12T16:05:28.814Z,112.50
2022-11-12T16:08:13.785Z,104.70
2022-11-12T16:11:00.056Z,126.30
2022-11-12T16:13:45.915Z,113.32
2022-11-12T16:16:31.998Z,123.72
2022-11-12T16:19:17.095Z,135.63
2022-11-12T16:22:03.834Z,146.02
2022-11-12T16:24:49.082Z,131.13
2022-11-12T16:27:34.610Z,133.05
2022-11-12T16:30:24.990Z,126.57
2022-11-12T16:33:11.924Z,129.35
2022-11-12T16:35:57.289Z,123.57
2022-11-12T16:38:42.638Z,112.60
2022-11-12T16:41:27.600Z,106.18
2022-11-12T16:44:12.927Z,88.35
2022-11-12T16:46:57.796Z,86.95
2022-11-12T16:49:42.771Z,101.60
2022-11-12T16:52:27.835Z,176.63
2022-11-12T16:55:13.251Z,131.40
2022-11-12T16:57:58.398Z,171.85
2022-11-12T17:00:47.065Z,88.00
2022-11-12T17:03:32.057Z,86.93
2022-11-12T17:06:17.371Z,116.57
2022-11-12T17:09:04.792Z,84.00
2022-11-12T17:11:49.928Z,163.23
2022-11-12T17:14:34.960Z,102.85
2022-11-12T17:17:20.359Z,101.13
2022-11-12T17:20:05.832Z,350.60
2022-11-12T17:22:50.756Z,96.88
2022-11-12T17:25:35.533Z,64.50
2022-11-12T17:28:20.439Z,64.55
2022-11-12T17:31:12.348Z,71.68
2022-11-12T17:33:57.306Z,50.45
2022-11-12T17:36:43.804Z,61.83
2022-11-12T17:39:29.432Z,66.20
2022-11-12T17:42:14.621Z,69.78
2022-11-12T17:44:59.613Z,65.78
2022-11-12T17:47:44.485Z,56.83
2022-11-12T17:50:29.424Z,62.20
2022-11-12T17:53:15.007Z,58.50
2022-11-12T17:56:00.444Z,53.83
2022-11-12T17:58:45.968Z,49.63
2022-11-12T18:01:33.568Z,51.13
2022-11-12T18:04:18.502Z,45.42
2022-11-12T18:07:03.467Z,48.83
2022-11-12T18:09:48.277Z,49.13
2022-11-12T18:12:33.257Z,42.83
2022-11-12T18:15:18.244Z,54.25
2022-11-12T18:18:04.329Z,44.72
2022-11-12T18:20:49.609Z,44.58
2022-11-12T18:23:39.160Z,38.63
2022-11-12T18:26:24.065Z,35.42
2022-11-12T18:29:09.099Z,36.85
2022-11-12T18:31:54.279Z,34.50
2022-11-12T18:34:41.674Z,37.42
2022-11-12T18:37:27.605Z,38.03
2022-11-12T18:40:13.031Z,35.53
2022-11-12T18:42:58.009Z,41.63
2022-11-12T18:45:42.963Z,56.95
2022-11-12T18:48:29.088Z,36.58
2022-11-12T18:51:16.695Z,32.17
2022-11-12T18:56:47.867Z,33.65
2022-11-12T18:59:32.809Z,28.40
2022-11-12T19:02:18.374Z,34.78
2022-11-12T19:05:03.290Z,35.15
2022-11-12T19:07:48.347Z,33.63
2022-11-12T19:10:33.551Z,35.25
2022-11-12T19:13:18.731Z,35.20
2022-11-12T19:16:11.837Z,34.20
2022-11-12T19:18:57.421Z,37.00
2022-11-12T19:21:42.363Z,40.30
2022-11-12T19:24:27.530Z,44.67
2022-11-12T19:27:12.354Z,58.40
2022-11-12T19:30:02.627Z,32.60
2022-11-12T19:32:48.280Z,49.15
2022-11-12T19:35:33.383Z,51.25
2022-11-12T19:38:18.207Z,48.13
2022-11-12T19:41:07.359Z,46.78
2022-11-12T19:43:52.943Z,38.78
2022-11-12T19:46:38.270Z,50.95
2022-11-12T19:49:23.201Z,39.38
2022-11-12T19:52:08.253Z,91.40
2022-11-12T19:54:53.629Z,36.33
2022-11-12T19:57:38.885Z,34.00
2022-11-12T20:00:23.955Z,39.83
2022-11-12T20:03:08.885Z,41.20
2022-11-12T20:06:00.336Z,43.28
2022-11-12T20:08:46.024Z,34.75
2022-11-12T20:11:31.491Z,50.13
2022-11-12T20:14:17.268Z,40.67
2022-11-12T20:17:02.650Z,36.03
2022-11-12T20:19:47.656Z,43.33
2022-11-12T20:22:33.206Z,35.40
2022-11-12T20:25:18.281Z,49.33
2022-11-12T20:28:03.201Z,51.83
2022-11-12T20:30:48.313Z,37.80
2022-11-12T20:33:36.699Z,29.50
2022-11-12T20:36:24.917Z,32.85
2022-11-12T20:39:10.137Z,44.38
2022-11-12T20:41:55.347Z,30.88
2022-11-12T20:44:41.137Z,36.63
2022-11-12T20:47:26.046Z,33.58
2022-11-12T20:50:10.978Z,34.53
2022-11-12T20:52:55.742Z,39.92
2022-11-12T20:55:40.692Z,35.20
2022-11-12T20:58:29.639Z,37.95
2022-11-12T21:01:16.542Z,38.90
2022-11-12T21:04:01.696Z,37.00
2022-11-12T21:06:46.675Z,76.97
2022-11-12T21:09:31.574Z,47.95
2022-11-12T21:12:16.839Z,90.30
2022-11-12T21:15:02.113Z,51.65
2022-11-12T21:17:50.243Z,46.67
2022-11-12T21:20:35.455Z,47.22
2022-11-12T21:23:21.406Z,48.50
2022-11-12T21:26:09.949Z,45.83
2022-11-12T21:28:55.847Z,46.58
2022-11-12T21:31:40.822Z,42.28
2022-11-12T21:34:25.795Z,112.97
2022-11-12T21:37:10.554Z,32.88
2022-11-12T21:39:55.320Z,36.83
2022-11-12T21:42:44.884Z,42.45
2022-11-12T21:45:29.778Z,40.85
2022-11-12T21:48:14.579Z,38.88
2022-11-12T21:51:07.217Z,46.28
2022-11-12T21:53:58.380Z,40.47
2022-11-12T21:56:45.033Z,54.90
2022-11-12T21:59:30.035Z,48.60
2022-11-12T22:02:15.094Z,46.88
2022-11-12T22:05:00.158Z,36.88
2022-11-12T22:07:45.569Z,39.05
2022-11-12T22:10:30.363Z,41.88
2022-11-12T22:13:30.495Z,53.35
2022-11-12T22:16:24.043Z,44.28
2022-11-12T22:19:10.596Z,30.60
2022-11-12T22:21:55.848Z,30.95
2022-11-12T22:24:40.998Z,78.25
2022-11-12T22:27:26.133Z,46.88
2022-11-12T22:30:11.774Z,33.95
2022-11-12T22:32:56.668Z,40.80
2022-11-12T22:35:41.517Z,30.27
2022-11-12T22:38:27.076Z,32.53
2022-11-12T22:41:14.912Z,45.60
2022-11-12T22:44:02.341Z,37.25
2022-11-12T22:46:47.127Z,46.95
2022-11-12T22:49:31.935Z,20.38
2022-11-12T22:52:16.718Z,136.48
2022-11-12T22:55:02.131Z,70.93
2022-11-12T22:57:47.059Z,23.33
2022-11-12T23:17:52.644Z,36.88
2022-11-12T23:20:37.885Z,20.92
2022-11-12T23:23:22.767Z,25.25
2022-11-12T23:26:12.734Z,24.33
2022-11-12T23:28:57.990Z,49.95
2022-11-12T23:31:43.056Z,25.25
2022-11-12T23:34:28.000Z,32.70
2022-11-12T23:37:12.921Z,68.70
2022-11-12T23:39:58.223Z,13.50
2022-11-12T23:42:43.129Z,20.70
2022-11-12T23:45:28.085Z,40.22
2022-11-12T23:48:13.298Z,40.25
2022-11-12T23:51:08.513Z,28.85
2022-11-12T23:53:53.705Z,17.63
2022-11-12T23:56:38.875Z,21.35
2022-11-12T23:59:24.245Z,16.77
